Time;durP1;ratioP1;P1;durP2;ratioP2;P2;SDS_P1;SDS_P2;PMS_P1;PMS_P2;Temp;Humidity;BMP_temperature;BMP_pressure;BME280_temperature;BME280_humidity;BME280_pressure;Samples;Min_cycle;Max_cycle;Signal;HPM_P1;HPM_P2
2022/07/21 00:00:06;;;;;;;34.63;19.27;;;21.50;99.90;;;;;;5033831;28;20170;-81
2022/07/21 00:02:32;;;;;;;23.60;17.13;;;21.20;99.90;;;;;;5033879;28;20221;-82
2022/07/21 00:04:58;;;;;;;25.02;17.95;;;20.80;99.90;;;;;;5034089;28;20194;-82
2022/07/21 00:07:23;;;;;;;27.83;17.13;;;20.80;99.90;;;;;;5034263;28;20178;-83
2022/07/21 00:09:49;;;;;;;23.13;15.18;;;20.80;99.90;;;;;;5035542;28;20225;-82
2022/07/21 00:12:14;;;;;;;20.70;15.75;;;20.80;99.90;;;;;;5033716;28;20588;-83
2022/07/21 00:14:40;;;;;;;29.42;16.05;;;20.70;99.90;;;;;;5034557;28;20200;-83
2022/07/21 00:17:06;;;;;;;22.17;15.88;;;20.80;99.90;;;;;;5033441;28;20209;-82
2022/07/21 00:19:31;;;;;;;24.73;16.23;;;20.70;99.90;;;;;;5033043;28;20201;-83
2022/07/21 00:21:57;;;;;;;25.73;16.20;;;20.50;99.90;;;;;;5033666;28;20269;-82
2022/07/21 00:24:23;;;;;;;25.03;16.87;;;20.40;99.90;;;;;;5034231;28;20190;-81
2022/07/21 00:26:48;;;;;;;24.63;16.00;;;20.30;99.90;;;;;;5033893;28;20712;-82
2022/07/21 00:29:14;;;;;;;24.47;16.03;;;20.30;99.90;;;;;;5033720;28;20667;-81
2022/07/21 00:31:40;;;;;;;20.43;15.90;;;20.10;99.90;;;;;;5034246;28;20581;-82
2022/07/21 00:34:05;;;;;;;32.00;16.60;;;20.10;99.90;;;;;;5033699;28;20801;-82
2022/07/21 00:36:31;;;;;;;21.97;16.30;;;20.10;99.90;;;;;;5033853;28;20654;-81
2022/07/21 00:38:57;;;;;;;26.00;17.70;;;20.00;99.90;;;;;;5034096;28;20631;-81
2022/07/21 00:41:22;;;;;;;27.10;16.57;;;19.90;99.90;;;;;;5033161;28;20646;-81
2022/07/21 00:43:48;;;;;;;25.37;17.87;;;19.90;99.90;;;;;;5033656;28;20186;-81
2022/07/21 00:46:13;;;;;;;22.87;15.80;;;20.00;99.90;;;;;;5033789;28;20260;-81
2022/07/21 00:48:39;;;;;;;24.80;16.87;;;19.90;99.90;;;;;;5033286;28;20178;-82
2022/07/21 00:51:05;;;;;;;22.20;16.03;;;19.90;99.90;;;;;;5032979;28;20174;-82
2022/07/21 00:53:31;;;;;;;23.70;15.77;;;19.80;99.90;;;;;;5033543;28;20189;-81
2022/07/21 00:55:59;;;;;;;26.27;16.73;;;19.90;99.90;;;;;;5033638;28;20260;-82
2022/07/21 00:58:24;;;;;;;21.77;16.83;;;20.00;99.90;;;;;;5032712;28;20609;-81
2022/07/21 01:00:50;;;;;;;22.27;15.97;;;20.00;99.90;;;;;;5032623;28;20201;-83
2022/07/21 01:03:16;;;;;;;24.13;16.47;;;19.80;99.90;;;;;;5033019;28;20173;-83
2022/07/21 01:05:42;;;;;;;22.53;16.03;;;19.80;99.90;;;;;;5033699;28;20210;-83
2022/07/21 01:08:08;;;;;;;21.30;15.57;;;19.80;99.90;;;;;;5033567;28;20196;-82
2022/07/21 01:10:33;;;;;;;24.77;16.17;;;20.00;99.90;;;;;;5033150;28;20546;-82
2022/07/21 01:13:00;;;;;;;21.10;15.57;;;19.80;99.90;;;;;;5032986;28;20184;-82
2022/07/21 01:15:26;;;;;;;21.37;15.53;;;19.80;99.90;;;;;;5032980;28;20177;-82
2022/07/21 01:17:52;;;;;;;23.70;16.03;;;20.10;99.90;;;;;;5033725;28;20256;-83
2022/07/21 01:20:21;;;;;;;24.13;15.70;;;20.00;99.90;;;;;;5032552;28;20177;-82
2022/07/21 01:22:50;;;;;;;25.13;16.10;;;20.20;99.90;;;;;;5032857;28;20212;-82
2022/07/21 01:25:18;;;;;;;28.13;16.73;;;20.00;99.90;;;;;;5032874;28;20212;-83
2022/07/21 01:27:45;;;;;;;22.20;16.00;;;19.90;99.90;;;;;;5032846;28;20661;-83
2022/07/21 01:30:11;;;;;;;24.30;15.40;;;19.70;99.90;;;;;;5032884;28;20232;-82
2022/07/21 01:32:39;;;;;;;23.13;16.03;;;19.80;99.90;;;;;;5032943;28;20166;-82
2022/07/21 01:35:07;;;;;;;21.40;15.07;;;19.80;99.90;;;;;;5033289;28;20565;-82
2022/07/21 01:37:39;;;;;;;20.40;15.33;;;19.80;99.90;;;;;;5033472;28;20193;-82
2022/07/21 01:42:52;;;;;;;20.60;15.83;;;19.90;99.90;;;;;;5038752;28;20172;-82
2022/07/21 01:45:18;;;;;;;26.73;16.57;;;19.70;99.90;;;;;;5037560;28;20248;-82
2022/07/21 01:47:44;;;;;;;22.60;16.50;;;19.80;99.90;;;;;;5036854;28;20178;-82
2022/07/21 01:50:10;;;;;;;24.07;16.60;;;19.80;99.90;;;;;;5037627;28;20665;-82
2022/07/21 01:52:36;;;;;;;21.97;16.23;;;19.80;99.90;;;;;;5036027;28;20247;-82
2022/07/21 01:55:02;;;;;;;18.80;15.10;;;19.90;99.90;;;;;;5036998;28;20621;-82
2022/07/21 01:57:27;;;;;;;25.10;16.77;;;19.90;99.90;;;;;;5036086;28;20646;-83
2022/07/21 01:59:53;;;;;;;21.83;16.53;;;20.00;99.90;;;;;;5035971;28;20285;-81
2022/07/21 02:02:20;;;;;;;22.40;14.87;;;19.80;99.90;;;;;;5035749;28;20558;-81
2022/07/21 02:04:47;;;;;;;23.77;16.37;;;19.60;99.90;;;;;;5036213;28;20198;-81
2022/07/21 02:07:13;;;;;;;23.43;15.73;;;19.60;99.90;;;;;;5036279;28;20177;-82
2022/07/21 02:09:39;;;;;;;23.00;16.37;;;19.70;99.90;;;;;;5035471;28;20251;-81
2022/07/21 02:12:05;;;;;;;24.13;15.63;;;19.70;99.90;;;;;;5034505;28;20721;-83
2022/07/21 02:14:31;;;;;;;23.83;16.87;;;19.70;99.90;;;;;;5036453;28;20194;-82
2022/07/21 02:16:56;;;;;;;25.17;16.83;;;19.70;99.90;;;;;;5034995;28;20174;-82
2022/07/21 02:19:22;;;;;;;23.53;15.60;;;19.60;99.90;;;;;;5034794;28;20194;-83
2022/07/21 02:21:48;;;;;;;22.23;15.97;;;19.70;99.90;;;;;;5034854;28;20174;-81
2022/07/21 02:24:13;;;;;;;23.20;15.83;;;19.70;99.90;;;;;;5035079;28;20229;-82
2022/07/21 02:26:39;;;;;;;23.13;17.00;;;19.60;99.90;;;;;;5035021;28;20610;-82
2022/07/21 02:29:05;;;;;;;25.63;17.80;;;19.60;99.90;;;;;;5034765;28;20174;-82
2022/07/21 02:31:30;;;;;;;22.47;18.00;;;19.50;99.90;;;;;;5034490;28;20593;-83
2022/07/21 02:33:56;;;;;;;26.27;18.43;;;19.50;99.90;;;;;;5034677;28;20217;-83
2022/07/21 02:36:22;;;;;;;27.57;17.63;;;19.40;99.90;;;;;;5034397;28;20174;-83
2022/07/21 02:38:47;;;;;;;18.70;13.07;;;19.50;99.90;;;;;;5034379;28;20658;-83
2022/07/21 02:41:13;;;;;;;19.60;14.17;;;19.50;99.90;;;;;;5034213;28;20166;-83
2022/07/21 02:43:39;;;;;;;18.03;13.03;;;19.60;99.90;;;;;;5034834;28;20193;-83
2022/07/21 02:46:04;;;;;;;17.43;11.83;;;19.50;99.90;;;;;;5034218;28;20241;-83
2022/07/21 02:48:30;;;;;;;16.87;11.67;;;19.30;99.90;;;;;;5034254;28;20213;-82
2022/07/21 02:50:56;;;;;;;18.10;10.70;;;19.20;99.90;;;;;;5034123;28;20178;-82
2022/07/21 02:53:23;;;;;;;15.63;9.87;;;19.10;99.90;;;;;;5033810;28;20366;-83
2022/07/21 02:55:51;;;;;;;11.80;9.17;;;19.10;99.90;;;;;;5034547;28;20269;-81
2022/07/21 02:58:28;;;;;;;12.30;8.30;;;19.10;99.90;;;;;;5034780;28;20201;-83
2022/07/21 03:01:02;;;;;;;10.10;7.83;;;19.00;99.90;;;;;;5034186;28;20162;-83
2022/07/21 03:03:31;;;;;;;12.00;7.97;;;18.90;99.90;;;;;;5033808;28;20197;-81
2022/07/21 03:05:58;;;;;;;14.60;8.17;;;18.90;99.90;;;;;;5033787;28;20655;-81
2022/07/21 03:08:25;;;;;;;9.63;8.07;;;19.00;99.90;;;;;;5033637;28;20178;-81
2022/07/21 03:10:51;;;;;;;16.07;9.40;;;19.00;99.90;;;;;;5033397;28;20192;-81
2022/07/21 03:13:17;;;;;;;9.50;8.30;;;19.00;99.90;;;;;;5033454;28;20538;-82
2022/07/21 03:15:43;;;;;;;14.63;9.00;;;18.90;99.90;;;;;;5033344;28;20178;-82
2022/07/21 03:18:09;;;;;;;15.17;9.40;;;19.00;99.90;;;;;;5033306;28;20568;-82
2022/07/21 03:20:37;;;;;;;14.13;9.37;;;19.00;99.90;;;;;;5033131;28;20232;-82
2022/07/21 03:23:03;;;;;;;17.33;8.60;;;19.10;99.90;;;;;;5032938;28;20702;-82
2022/07/21 03:25:29;;;;;;;14.33;9.47;;;19.00;99.90;;;;;;5033559;28;20170;-82
2022/07/21 03:27:55;;;;;;;13.33;9.40;;;18.90;99.90;;;;;;5033106;28;20196;-82
2022/07/21 03:30:21;;;;;;;12.73;9.57;;;18.90;99.90;;;;;;5032995;28;20711;-82
2022/07/21 03:32:48;;;;;;;15.60;9.80;;;18.80;99.90;;;;;;5032847;28;20177;-82
2022/07/21 03:35:14;;;;;;;13.63;9.40;;;18.80;99.90;;;;;;5033233;28;20186;-82
2022/07/21 03:37:55;;;;;;;12.93;8.63;;;18.70;99.90;;;;;;5032976;28;20173;-82
2022/07/21 03:40:24;;;;;;;13.37;8.73;;;18.70;99.90;;;;;;5032841;28;20170;-82
2022/07/21 03:42:54;;;;;;;12.03;8.43;;;18.70;99.90;;;;;;5032653;28;20577;-81
2022/07/21 03:45:20;;;;;;;10.27;7.50;;;18.70;99.90;;;;;;5034150;28;20186;-83
2022/07/21 03:47:46;;;;;;;12.63;8.40;;;18.70;99.90;;;;;;5034033;28;20177;-82
2022/07/21 03:50:12;;;;;;;12.37;7.63;;;18.60;99.90;;;;;;5032885;28;20205;-82
2022/07/21 03:52:39;;;;;;;10.63;8.40;;;18.60;99.90;;;;;;5032381;28;20166;-82
2022/07/21 03:55:08;;;;;;;10.77;7.80;;;18.60;99.90;;;;;;5032787;28;20193;-82
2022/07/21 03:58:01;;;;;;;11.57;7.60;;;18.60;99.90;;;;;;5032596;28;20170;-82
2022/07/21 04:00:30;;;;;;;12.57;8.33;;;18.60;99.90;;;;;;5029471;28;20182;-82
2022/07/21 04:02:56;;;;;;;10.87;8.50;;;18.70;99.90;;;;;;5033136;28;20170;-83
2022/07/21 04:05:23;;;;;;;14.33;8.33;;;18.60;99.90;;;;;;5033283;28;20220;-83
2022/07/21 04:07:50;;;;;;;12.03;9.17;;;18.70;99.90;;;;;;5033204;28;20166;-82
2022/07/21 04:10:19;;;;;;;11.73;9.50;;;18.60;99.90;;;;;;5033452;28;20174;-82
2022/07/21 04:12:45;;;;;;;15.17;9.77;;;18.60;99.90;;;;;;5033963;28;20312;-82
2022/07/21 04:15:11;;;;;;;14.77;10.70;;;18.70;99.90;;;;;;5033853;28;20213;-82
2022/07/21 04:17:38;;;;;;;13.70;9.93;;;18.70;99.90;;;;;;5034361;28;20166;-82
2022/07/21 04:20:05;;;;;;;13.67;10.13;;;18.70;99.90;;;;;;5033978;28;20222;-82
2022/07/21 04:22:30;;;;;;;14.23;10.40;;;18.60;99.90;;;;;;5033874;28;20176;-82
2022/07/21 04:24:56;;;;;;;13.63;10.97;;;18.60;99.90;;;;;;5034810;28;20277;-83
2022/07/21 04:27:22;;;;;;;13.93;10.40;;;18.70;99.90;;;;;;5036133;28;20639;-82
2022/07/21 04:29:47;;;;;;;13.97;10.67;;;18.60;99.90;;;;;;5034868;28;20222;-83
2022/07/21 04:32:13;;;;;;;14.87;11.13;;;18.70;99.90;;;;;;5034644;28;20170;-84
2022/07/21 04:34:39;;;;;;;16.63;10.87;;;18.60;99.90;;;;;;5034529;28;20671;-81
2022/07/21 04:37:05;;;;;;;17.23;11.53;;;18.80;99.90;;;;;;5035360;28;20212;-81
2022/07/21 04:39:30;;;;;;;16.00;11.57;;;18.70;99.90;;;;;;5034186;28;20673;-81
2022/07/21 04:41:56;;;;;;;19.90;13.23;;;18.80;99.90;;;;;;5033711;28;20169;-81
2022/07/21 04:44:22;;;;;;;16.13;12.27;;;18.80;99.90;;;;;;5034430;28;20559;-81
2022/07/21 04:46:48;;;;;;;18.20;11.97;;;18.80;99.90;;;;;;5034423;28;20185;-81
2022/07/21 04:49:13;;;;;;;17.20;12.00;;;18.80;99.90;;;;;;5034813;28;20196;-81
2022/07/21 04:51:40;;;;;;;14.10;11.37;;;18.90;99.90;;;;;;5034833;28;20177;-81
2022/07/21 04:54:06;;;;;;;18.03;11.23;;;18.70;99.90;;;;;;5034928;28;20198;-81
2022/07/21 04:56:34;;;;;;;16.50;10.57;;;18.70;99.90;;;;;;5034536;28;20178;-81
2022/07/21 04:59:00;;;;;;;16.23;11.50;;;18.70;99.90;;;;;;5034897;28;20584;-81
2022/07/21 05:01:26;;;;;;;16.60;11.43;;;18.70;99.90;;;;;;5033822;28;20670;-81
2022/07/21 05:03:51;;;;;;;17.13;13.20;;;18.70;99.90;;;;;;5034648;28;20357;-81
2022/07/21 05:06:18;;;;;;;19.80;13.63;;;18.80;99.90;;;;;;5034178;28;20221;-81
2022/07/21 05:08:43;;;;;;;21.77;14.40;;;18.70;99.90;;;;;;5033403;28;20221;-81
2022/07/21 05:11:09;;;;;;;21.13;15.60;;;18.80;99.90;;;;;;5033773;28;20714;-82
2022/07/21 05:13:35;;;;;;;22.33;16.13;;;18.80;99.90;;;;;;5033363;28;20193;-81
2022/07/21 05:16:00;;;;;;;28.67;18.63;;;18.90;99.90;;;;;;5034249;28;20745;-82
2022/07/21 05:18:26;;;;;;;31.37;19.50;;;18.90;99.90;;;;;;5034950;28;20206;-81
2022/07/21 05:20:52;;;;;;;31.27;22.00;;;19.00;99.90;;;;;;5035567;28;20177;-81
2022/07/21 05:23:17;;;;;;;30.87;20.37;;;19.10;99.90;;;;;;5034430;28;20173;-81
2022/07/21 05:25:43;;;;;;;36.10;20.90;;;18.90;99.90;;;;;;5034350;28;20173;-83
2022/07/21 05:28:09;;;;;;;32.07;20.47;;;19.00;99.90;;;;;;5034161;28;20170;-81
2022/07/21 05:30:35;;;;;;;33.17;20.27;;;19.00;99.90;;;;;;5034243;28;20696;-82
2022/07/21 05:33:01;;;;;;;32.07;21.27;;;19.00;99.90;;;;;;5034404;28;20170;-82
2022/07/21 05:35:26;;;;;;;33.80;22.70;;;19.10;99.90;;;;;;5033382;28;20689;-82
2022/07/21 05:37:52;;;;;;;35.23;22.17;;;19.20;99.90;;;;;;5031560;28;20673;-83
2022/07/21 05:40:17;;;;;;;35.80;22.43;;;19.10;99.90;;;;;;5032354;28;20213;-81
2022/07/21 05:42:43;;;;;;;33.50;22.47;;;19.10;99.90;;;;;;5032268;28;20178;-84
2022/07/21 05:45:10;;;;;;;36.70;22.07;;;19.00;99.90;;;;;;5032375;28;20190;-82
2022/07/21 05:47:35;;;;;;;36.10;23.60;;;19.10;99.90;;;;;;5032229;28;20174;-81
2022/07/21 05:50:01;;;;;;;35.83;24.13;;;19.10;99.90;;;;;;5032208;28;20593;-83
2022/07/21 05:52:27;;;;;;;36.43;24.80;;;19.20;99.90;;;;;;5032558;28;20173;-83
2022/07/21 05:54:52;;;;;;;37.83;24.97;;;19.20;99.90;;;;;;5032033;28;20193;-83
2022/07/21 05:57:18;;;;;;;36.93;24.60;;;19.20;99.90;;;;;;5031461;28;20182;-83
2022/07/21 05:59:45;;;;;;;36.47;24.97;;;19.20;99.90;;;;;;5031538;28;20198;-83
2022/07/21 06:02:11;;;;;;;40.63;26.40;;;19.30;99.90;;;;;;5032139;28;20177;-83
2022/07/21 06:04:37;;;;;;;38.77;25.40;;;19.40;99.90;;;;;;5033355;28;20186;-83
2022/07/21 06:07:03;;;;;;;35.03;24.17;;;19.30;99.90;;;;;;5032951;28;20263;-82
2022/07/21 06:09:28;;;;;;;36.00;24.70;;;19.30;99.90;;;;;;5033610;28;20170;-84
2022/07/21 06:11:55;;;;;;;34.77;23.87;;;19.30;99.90;;;;;;5032392;28;20688;-83
2022/07/21 06:14:21;;;;;;;38.53;24.07;;;19.40;99.90;;;;;;5033128;28;20194;-83
2022/07/21 06:16:47;;;;;;;33.50;23.17;;;19.30;99.90;;;;;;5032322;28;20243;-83
2022/07/21 06:19:12;;;;;;;34.10;22.17;;;19.30;99.90;;;;;;5032721;28;20194;-82
2022/07/21 06:21:40;;;;;;;31.53;21.87;;;19.30;99.90;;;;;;5032943;28;20221;-82
2022/07/21 06:24:06;;;;;;;31.53;21.33;;;19.20;99.90;;;;;;5034503;28;20197;-83
2022/07/21 06:26:32;;;;;;;28.83;21.07;;;19.40;99.90;;;;;;5036886;28;20200;-82
2022/07/21 06:28:58;;;;;;;31.13;22.00;;;19.40;99.90;;;;;;5036740;28;20182;-83
2022/07/21 06:31:23;;;;;;;31.23;21.53;;;19.40;99.90;;;;;;5036652;28;20662;-82
2022/07/21 06:33:49;;;;;;;33.53;22.50;;;19.40;99.90;;;;;;5036718;28;20228;-82
2022/07/21 06:36:15;;;;;;;32.90;22.60;;;19.40;99.90;;;;;;5038640;28;20174;-81
2022/07/21 06:38:40;;;;;;;35.80;24.57;;;19.50;99.90;;;;;;5036521;28;20690;-81
2022/07/21 06:41:06;;;;;;;33.93;24.30;;;19.60;99.90;;;;;;5036965;28;20639;-79
2022/07/21 06:43:32;;;;;;;34.80;24.27;;;19.40;99.90;;;;;;5038453;28;20280;-80
2022/07/21 06:45:58;;;;;;;38.03;24.50;;;19.60;99.90;;;;;;5038660;28;20257;-77
2022/07/21 06:48:24;;;;;;;33.77;25.33;;;19.60;99.90;;;;;;5036829;28;20668;-80
2022/07/21 06:50:50;;;;;;;34.73;24.27;;;19.60;99.90;;;;;;5036450;28;20217;-79
2022/07/21 06:53:17;;;;;;;34.10;23.97;;;19.50;99.90;;;;;;5036603;28;20182;-79
2022/07/21 06:55:43;;;;;;;37.23;24.17;;;19.50;99.90;;;;;;5035790;28;20224;-80
2022/07/21 06:58:17;;;;;;;37.87;25.03;;;19.50;99.90;;;;;;5030914;28;20174;-80
2022/07/21 07:00:44;;;;;;;32.57;24.13;;;19.60;99.90;;;;;;5025117;28;20516;-78
2022/07/21 07:03:12;;;;;;;36.63;25.00;;;19.60;99.90;;;;;;5021862;28;20228;-79
2022/07/21 07:05:37;;;;;;;39.80;25.60;;;19.70;99.90;;;;;;5022326;28;20661;-79
2022/07/21 07:08:04;;;;;;;40.80;25.67;;;19.60;99.90;;;;;;5024690;28;20174;-78
2022/07/21 07:10:30;;;;;;;36.77;25.23;;;19.70;99.90;;;;;;5024293;28;20182;-77
2022/07/21 07:12:56;;;;;;;35.93;24.50;;;19.70;99.90;;;;;;5018511;28;20309;-78
2022/07/21 07:15:23;;;;;;;39.13;25.87;;;19.70;99.90;;;;;;5033619;28;20197;-78
2022/07/21 07:17:49;;;;;;;38.43;26.13;;;19.70;99.90;;;;;;5027931;28;20167;-79
2022/07/21 07:20:15;;;;;;;42.27;26.90;;;19.80;99.90;;;;;;5023616;28;20178;-79
2022/07/21 07:22:40;;;;;;;33.67;24.65;;;19.90;99.90;;;;;;5027040;28;20242;-80
2022/07/21 07:25:07;;;;;;;32.97;23.90;;;20.00;99.90;;;;;;5018172;28;20186;-78
2022/07/21 07:27:33;;;;;;;34.03;24.33;;;20.10;99.90;;;;;;5021627;28;20221;-78
2022/07/21 07:29:58;;;;;;;36.03;24.73;;;19.80;99.90;;;;;;5026178;28;20175;-78
2022/07/21 07:32:24;;;;;;;36.43;24.27;;;19.90;99.90;;;;;;5015371;28;20197;-79
2022/07/21 07:34:50;;;;;;;36.87;24.67;;;19.80;99.90;;;;;;5016010;28;20199;-79
2022/07/21 07:37:15;;;;;;;35.47;24.20;;;19.80;99.90;;;;;;5013996;28;20261;-79
2022/07/21 07:39:41;;;;;;;30.53;22.83;;;19.90;99.90;;;;;;5014466;28;20195;-78
2022/07/21 07:42:07;;;;;;;37.80;24.80;;;20.00;99.90;;;;;;5014591;28;20167;-79
2022/07/21 07:44:33;;;;;;;33.83;24.27;;;20.00;99.90;;;;;;5013287;28;20190;-78
2022/07/21 07:47:01;;;;;;;35.10;23.97;;;20.00;99.90;;;;;;5014571;28;20183;-80
2022/07/21 07:49:31;;;;;;;36.72;23.95;;;20.00;99.90;;;;;;5022666;28;20228;-80
2022/07/21 07:51:57;;;;;;;32.87;23.30;;;20.10;99.90;;;;;;5027495;28;20217;-79
2022/07/21 07:54:24;;;;;;;35.73;23.47;;;20.10;99.90;;;;;;5035342;28;20209;-80
2022/07/21 07:56:49;;;;;;;32.75;25.10;;;20.10;99.90;;;;;;5035808;28;20635;-80
2022/07/21 07:59:15;;;;;;;34.87;24.40;;;20.40;99.90;;;;;;5035236;28;20209;-80
2022/07/21 08:01:41;;;;;;;37.50;26.23;;;20.20;99.90;;;;;;5031038;28;20178;-79
2022/07/21 08:04:07;;;;;;;31.33;24.87;;;20.40;99.90;;;;;;5022067;28;20183;-78
2022/07/21 08:06:32;;;;;;;28.00;20.67;;;20.40;99.90;;;;;;5028684;28;20227;-79
2022/07/21 08:08:58;;;;;;;31.07;22.37;;;20.80;99.90;;;;;;5033489;28;20666;-79
2022/07/21 08:11:24;;;;;;;30.83;24.00;;;20.80;99.90;;;;;;5025807;28;20273;-80
2022/07/21 08:13:50;;;;;;;30.70;23.00;;;20.90;99.90;;;;;;5022052;28;20375;-80
2022/07/21 08:16:16;;;;;;;31.73;24.10;;;20.90;99.90;;;;;;5024805;28;20552;-79
2022/07/21 08:18:42;;;;;;;31.02;23.23;;;20.80;99.90;;;;;;5020027;28;20189;-79
2022/07/21 08:21:08;;;;;;;35.38;22.00;;;20.80;99.90;;;;;;5014105;28;20174;-79
2022/07/21 08:23:34;;;;;;;30.10;23.40;;;20.70;99.90;;;;;;5018377;28;20674;-78
2022/07/21 08:26:00;;;;;;;31.30;23.90;;;21.00;99.90;;;;;;5018568;28;20265;-78
2022/07/21 08:28:26;;;;;;;36.28;24.48;;;21.00;99.90;;;;;;5017119;28;20167;-80
2022/07/21 08:30:51;;;;;;;30.05;21.88;;;20.50;99.90;;;;;;5032191;28;20185;-81
2022/07/21 08:33:17;;;;;;;31.58;22.52;;;20.30;99.90;;;;;;5032122;28;20176;-81
2022/07/21 08:35:43;;;;;;;28.75;21.52;;;20.30;99.90;;;;;;5015314;28;20233;-82
2022/07/21 08:38:11;;;;;;;28.25;21.48;;;20.10;99.90;;;;;;5013514;28;20186;-78
2022/07/21 08:40:39;;;;;;;30.45;23.17;;;20.10;99.90;;;;;;5014722;28;20710;-78
2022/07/21 08:43:06;;;;;;;28.95;21.50;;;20.20;99.90;;;;;;5013789;28;20217;-78
2022/07/21 08:45:32;;;;;;;33.45;22.05;;;20.30;99.90;;;;;;5015292;28;20179;-78
2022/07/21 08:47:59;;;;;;;30.50;22.00;;;20.30;99.90;;;;;;5013154;28;20174;-78
2022/07/21 08:50:37;;;;;;;28.77;20.92;;;20.20;99.90;;;;;;5012947;28;20171;-78
2022/07/21 08:53:03;;;;;;;31.70;20.73;;;20.50;99.90;;;;;;5012519;28;20181;-78
2022/07/21 08:55:34;;;;;;;26.88;19.13;;;20.80;99.90;;;;;;5020899;28;20810;-78
2022/07/21 08:58:01;;;;;;;28.00;18.30;;;21.00;99.90;;;;;;5014311;28;20177;-78
2022/07/21 09:00:26;;;;;;;26.52;18.83;;;21.40;99.90;;;;;;5024395;28;20167;-79
2022/07/21 09:03:11;;;;;;;25.17;18.13;;;21.50;99.90;;;;;;5022100;28;20669;-78
2022/07/21 09:05:37;;;;;;;22.55;17.27;;;21.30;99.90;;;;;;5012971;28;20233;-77
2022/07/21 09:08:03;;;;;;;25.50;16.35;;;21.50;99.90;;;;;;5012661;28;20783;-78
2022/07/21 09:10:30;;;;;;;21.50;14.52;;;21.80;99.90;;;;;;5012419;28;20171;-78
2022/07/21 09:13:00;;;;;;;21.95;15.50;;;22.20;99.90;;;;;;5012832;28;20174;-78
2022/07/21 09:15:28;;;;;;;17.67;13.10;;;22.80;99.90;;;;;;5014294;28;20226;-79
2022/07/21 09:18:22;;;;;;;22.52;15.38;;;22.60;99.90;;;;;;5015556;28;20174;-78
2022/07/21 09:20:53;;;;;;;19.10;13.88;;;22.40;99.90;;;;;;5000592;28;20186;-78
2022/07/21 09:23:22;;;;;;;15.95;13.18;;;22.40;99.90;;;;;;5012589;28;20273;-78
2022/07/21 09:25:54;;;;;;;15.73;13.05;;;22.50;99.90;;;;;;5014527;28;20623;-78
2022/07/21 09:28:28;;;;;;;16.02;12.68;;;22.90;99.90;;;;;;5017393;28;20181;-79
2022/07/21 09:31:03;;;;;;;17.00;12.10;;;23.00;99.90;;;;;;5014884;28;20218;-79
2022/07/21 09:33:35;;;;;;;14.30;12.40;;;22.90;99.90;;;;;;5013441;28;20622;-79
2022/07/21 09:36:10;;;;;;;17.90;13.18;;;22.60;99.90;;;;;;5013992;28;20658;-79
2022/07/21 09:38:42;;;;;;;18.02;13.60;;;22.70;99.90;;;;;;5013988;28;20208;-79
2022/07/21 09:41:15;;;;;;;18.15;12.20;;;22.90;99.90;;;;;;5013754;28;20257;-79
2022/07/21 09:43:48;;;;;;;15.88;12.85;;;23.00;99.90;;;;;;5015295;28;20186;-79
2022/07/21 09:46:20;;;;;;;16.17;12.40;;;22.30;99.90;;;;;;5014278;28;20564;-79
2022/07/21 09:48:49;;;;;;;15.63;12.95;;;22.50;99.90;;;;;;5014729;28;20186;-79
2022/07/21 09:51:30;;;;;;;15.02;11.95;;;22.30;99.90;;;;;;5013832;28;20171;-79
2022/07/21 09:54:00;;;;;;;17.50;13.20;;;22.70;99.90;;;;;;5013541;28;20257;-79
2022/07/21 09:56:32;;;;;;;14.57;11.93;;;22.40;99.90;;;;;;5013910;28;20183;-79
2022/07/21 09:58:59;;;;;;;14.98;11.48;;;22.50;99.90;;;;;;5014884;28;20234;-78
2022/07/21 10:01:26;;;;;;;16.00;11.70;;;22.20;99.90;;;;;;5016506;28;20171;-78
2022/07/21 10:03:53;;;;;;;15.82;11.85;;;22.40;99.90;;;;;;5015679;28;20244;-78
2022/07/21 10:06:22;;;;;;;16.60;12.10;;;22.00;99.90;;;;;;5016262;28;20194;-78
2022/07/21 10:08:49;;;;;;;13.77;11.32;;;22.10;99.90;;;;;;5016073;28;20179;-78
2022/07/21 10:11:15;;;;;;;15.48;11.63;;;22.20;99.90;;;;;;5017108;28;20292;-78
2022/07/21 10:13:41;;;;;;;15.73;12.63;;;22.30;99.90;;;;;;5015899;28;20639;-78
2022/07/21 10:16:11;;;;;;;16.98;12.52;;;22.40;99.90;;;;;;5014702;28;20179;-77
2022/07/21 10:18:46;;;;;;;16.65;12.98;;;22.50;99.90;;;;;;5014804;28;20217;-77
2022/07/21 10:21:58;;;;;;;17.75;13.70;;;22.50;99.90;;;;;;5014475;28;20174;-78
2022/07/21 10:24:28;;;;;;;14.15;12.15;;;22.60;99.90;;;;;;5012317;28;20206;-79
2022/07/21 10:27:05;;;;;;;14.70;13.15;;;22.30;99.90;;;;;;5016990;28;20598;-78
2022/07/21 10:29:52;;;;;;;15.15;13.57;;;22.30;99.90;;;;;;5015723;28;20178;-78
2022/07/21 10:32:29;;;;;;;22.58;14.18;;;21.90;99.90;;;;;;5015535;28;20643;-79
2022/07/21 10:34:56;;;;;;;15.68;12.45;;;22.30;99.90;;;;;;5016038;28;20194;-80
2022/07/21 10:37:40;;;;;;;13.43;12.00;;;22.70;99.90;;;;;;5017951;28;20644;-78
2022/07/21 10:40:18;;;;;;;16.10;12.38;;;22.80;99.90;;;;;;5016309;28;20289;-78
2022/07/21 10:42:44;;;;;;;15.27;10.65;;;23.00;99.90;;;;;;5017274;28;20264;-81
2022/07/21 10:45:32;;;;;;;11.35;10.25;;;23.30;99.90;;;;;;5016963;28;20226;-81
2022/07/21 10:47:59;;;;;;;12.20;9.95;;;23.60;99.90;;;;;;5017254;28;20577;-80
2022/07/21 10:50:39;;;;;;;12.00;9.27;;;23.80;99.90;;;;;;5016947;28;20225;-80
2022/07/21 10:53:11;;;;;;;10.85;8.18;;;23.60;99.90;;;;;;5016492;28;20171;-80
2022/07/21 10:55:38;;;;;;;13.43;9.00;;;23.60;99.90;;;;;;5017503;28;20162;-80
2022/07/21 10:58:29;;;;;;;12.57;8.68;;;23.90;99.90;;;;;;5015944;28;20221;-78
2022/07/21 11:00:56;;;;;;;12.85;8.02;;;24.00;99.90;;;;;;5017187;28;20162;-82
2022/07/21 11:03:26;;;;;;;14.60;8.13;;;24.10;99.90;;;;;;5017399;28;20171;-81
2022/07/21 11:06:15;;;;;;;9.93;7.78;;;23.90;99.90;;;;;;5017419;28;20246;-80
2022/07/21 11:08:44;;;;;;;10.32;7.50;;;24.00;99.90;;;;;;5018034;28;20178;-81
2022/07/21 11:11:26;;;;;;;12.52;9.23;;;23.90;99.90;;;;;;5014968;28;20190;-81
2022/07/21 11:14:12;;;;;;;10.90;8.60;;;23.60;99.90;;;;;;5016071;28;20195;-80
2022/07/21 11:16:52;;;;;;;10.27;7.85;;;23.90;99.90;;;;;;5016347;28;20189;-81
2022/07/21 11:19:37;;;;;;;10.95;8.98;;;23.90;99.90;;;;;;5015820;28;20221;-80
2022/07/21 11:22:21;;;;;;;11.75;8.65;;;23.50;99.90;;;;;;5016344;28;20163;-80
2022/07/21 11:24:58;;;;;;;11.60;8.40;;;23.60;99.90;;;;;;5015966;28;20621;-78
2022/07/21 11:27:27;;;;;;;13.20;7.50;;;24.10;99.90;;;;;;5016338;28;20178;-79
2022/07/21 11:29:55;;;;;;;10.98;7.50;;;23.90;99.90;;;;;;5016945;28;20234;-79
2022/07/21 11:32:21;;;;;;;13.55;7.40;;;24.50;99.90;;;;;;5016316;28;20547;-79
2022/07/21 11:34:50;;;;;;;7.97;6.70;;;25.20;99.90;;;;;;5016166;28;20281;-79
2022/07/21 11:37:18;;;;;;;9.00;7.05;;;24.90;99.90;;;;;;5016515;28;20178;-79
2022/07/21 11:39:45;;;;;;;7.35;6.50;;;24.30;99.90;;;;;;5016386;28;20233;-79
2022/07/21 11:42:15;;;;;;;8.05;7.18;;;24.20;99.90;;;;;;5016816;28;20194;-79
2022/07/21 11:44:41;;;;;;;10.65;7.70;;;24.20;99.90;;;;;;5016232;28;20226;-79
2022/07/21 11:47:11;;;;;;;11.57;7.80;;;24.90;99.90;;;;;;5016374;28;20178;-79
2022/07/21 11:49:37;;;;;;;9.65;7.03;;;25.30;99.90;;;;;;5016376;28;20186;-79
2022/07/21 11:52:26;;;;;;;9.90;7.07;;;25.50;99.90;;;;;;5016401;28;20527;-81
2022/07/21 11:54:54;;;;;;;11.35;7.50;;;25.30;99.90;;;;;;5004539;28;20261;-81
2022/07/21 11:57:21;;;;;;;13.07;7.20;;;24.80;99.90;;;;;;5015958;28;20183;-81
2022/07/21 11:59:49;;;;;;;11.38;7.45;;;24.80;99.90;;;;;;5015632;28;20210;-80
2022/07/21 12:02:21;;;;;;;9.73;7.10;;;25.10;99.90;;;;;;5015348;28;20171;-81
2022/07/21 12:04:50;;;;;;;12.68;7.25;;;24.90;99.90;;;;;;5016298;28;20694;-80
2022/07/21 12:07:30;;;;;;;8.13;7.28;;;25.00;99.90;;;;;;5016397;28;20259;-81
2022/07/21 12:10:07;;;;;;;10.68;8.30;;;24.60;99.90;;;;;;5016822;28;20628;-81
2022/07/21 12:12:34;;;;;;;12.13;8.57;;;24.10;99.90;;;;;;5015728;28;20194;-81
2022/07/21 12:15:14;;;;;;;11.32;7.95;;;23.90;99.90;;;;;;5015794;28;20194;-81
2022/07/21 12:18:01;;;;;;;10.55;8.25;;;23.90;99.90;;;;;;5016399;28;20175;-81
2022/07/21 12:20:34;;;;;;;17.08;9.57;;;23.40;99.90;;;;;;5017615;28;20241;-82
2022/07/21 12:23:21;;;;;;;25.60;11.23;;;22.90;99.90;;;;;;5017061;28;20178;-82
2022/07/21 12:25:48;;;;;;;17.30;12.20;;;21.60;99.90;;;;;;5033731;28;20179;-82
2022/07/21 12:28:14;;;;;;;21.25;13.68;;;21.00;99.90;;;;;;5017376;28;20175;-82
2022/07/21 12:30:47;;;;;;;19.25;13.63;;;20.70;99.90;;;;;;5017599;28;20262;-82
2022/07/21 12:33:33;;;;;;;18.05;12.77;;;20.90;99.90;;;;;;5018134;28;20174;-82
2022/07/21 12:35:59;;;;;;;19.42;14.82;;;20.70;99.90;;;;;;5034087;28;20608;-82
2022/07/21 12:38:42;;;;;;;15.35;12.65;;;20.80;99.90;;;;;;5016914;28;20195;-80